Nearby METAR Reports

 

EGFF - Cardiff-Wales Ar, United Kingdom
Distance from station: SE 22km
Updated: 05/04/2020 14:20
Clear
Clear
 Wind from ESE
Wind: ESE 13 mph , 20 km/h
Temperature: 15°C
Dew Point: 8°C
Humidity: 63%
Barometer: 1008 hPa
Clouds: Clear
Visibility: 6 miles , 10 km
2020/04/05 13:20 EGFF 051320Z AUTO 12011KT 9999 NCD 15/08 Q1008